sensor_id;sensor_type;location;lat;lon;timestamp;P1;durP1;ratioP1;P2;durP2;ratioP2
82760;SDS011;72498;42.022;21.444;2023-12-20T00:00:42;311.08;;;153.75;;
82760;SDS011;72498;42.022;21.444;2023-12-20T00:03:08;314.60;;;155.80;;
82760;SDS011;72498;42.022;21.444;2023-12-20T00:05:35;302.95;;;147.52;;
82760;SDS011;72498;42.022;21.444;2023-12-20T00:08:07;284.90;;;142.93;;
82760;SDS011;72498;42.022;21.444;2023-12-20T00:10:33;269.55;;;135.80;;
82760;SDS011;72498;42.022;21.444;2023-12-20T00:13:06;276.05;;;137.75;;
82760;SDS011;72498;42.022;21.444;2023-12-20T00:15:33;263.75;;;134.55;;
82760;SDS011;72498;42.022;21.444;2023-12-20T00:17:59;250.40;;;123.72;;
82760;SDS011;72498;42.022;21.444;2023-12-20T00:20:26;260.55;;;137.80;;
82760;SDS011;72498;42.022;21.444;2023-12-20T00:22:54;262.67;;;133.07;;
82760;SDS011;72498;42.022;21.444;2023-12-20T00:25:25;288.02;;;144.32;;
82760;SDS011;72498;42.022;21.444;2023-12-20T00:27:53;265.90;;;137.00;;
82760;SDS011;72498;42.022;21.444;2023-12-20T00:30:19;273.45;;;139.35;;
82760;SDS011;72498;42.022;21.444;2023-12-20T00:32:45;268.17;;;135.10;;
82760;SDS011;72498;42.022;21.444;2023-12-20T00:35:12;268.67;;;130.90;;
82760;SDS011;72498;42.022;21.444;2023-12-20T00:37:39;249.68;;;126.25;;
82760;SDS011;72498;42.022;21.444;2023-12-20T00:40:05;219.73;;;110.50;;
82760;SDS011;72498;42.022;21.444;2023-12-20T00:42:32;225.55;;;111.88;;
82760;SDS011;72498;42.022;21.444;2023-12-20T00:44:58;224.18;;;109.70;;
82760;SDS011;72498;42.022;21.444;2023-12-20T00:47:26;221.55;;;107.35;;
82760;SDS011;72498;42.022;21.444;2023-12-20T00:49:52;218.65;;;107.78;;
82760;SDS011;72498;42.022;21.444;2023-12-20T00:52:21;216.68;;;109.30;;
82760;SDS011;72498;42.022;21.444;2023-12-20T00:54:47;229.43;;;113.43;;
82760;SDS011;72498;42.022;21.444;2023-12-20T00:57:14;211.02;;;108.85;;
82760;SDS011;72498;42.022;21.444;2023-12-20T00:59:40;215.40;;;106.50;;
82760;SDS011;72498;42.022;21.444;2023-12-20T01:02:06;223.82;;;106.82;;
82760;SDS011;72498;42.022;21.444;2023-12-20T01:04:33;208.15;;;102.97;;
82760;SDS011;72498;42.022;21.444;2023-12-20T01:07:00;199.68;;;97.32;;
82760;SDS011;72498;42.022;21.444;2023-12-20T01:09:26;180.32;;;87.60;;
82760;SDS011;72498;42.022;21.444;2023-12-20T01:11:52;169.35;;;85.78;;
82760;SDS011;72498;42.022;21.444;2023-12-20T01:14:18;163.93;;;78.63;;
82760;SDS011;72498;42.022;21.444;2023-12-20T01:16:45;165.88;;;78.80;;
82760;SDS011;72498;42.022;21.444;2023-12-20T01:19:11;168.00;;;84.35;;
82760;SDS011;72498;42.022;21.444;2023-12-20T01:21:39;163.80;;;76.25;;
82760;SDS011;72498;42.022;21.444;2023-12-20T01:24:05;165.52;;;80.03;;
82760;SDS011;72498;42.022;21.444;2023-12-20T01:26:31;171.77;;;80.97;;
82760;SDS011;72498;42.022;21.444;2023-12-20T01:28:57;142.40;;;70.93;;
82760;SDS011;72498;42.022;21.444;2023-12-20T01:31:23;159.60;;;75.65;;
82760;SDS011;72498;42.022;21.444;2023-12-20T01:33:50;142.05;;;69.35;;
82760;SDS011;72498;42.022;21.444;2023-12-20T01:36:16;143.07;;;70.03;;
82760;SDS011;72498;42.022;21.444;2023-12-20T01:38:42;139.98;;;70.18;;
82760;SDS011;72498;42.022;21.444;2023-12-20T01:41:08;139.63;;;66.95;;
82760;SDS011;72498;42.022;21.444;2023-12-20T01:43:34;133.27;;;66.00;;
82760;SDS011;72498;42.022;21.444;2023-12-20T01:46:01;124.75;;;62.97;;
82760;SDS011;72498;42.022;21.444;2023-12-20T01:48:28;129.13;;;57.63;;
82760;SDS011;72498;42.022;21.444;2023-12-20T01:53:23;145.68;;;64.60;;
82760;SDS011;72498;42.022;21.444;2023-12-20T01:55:52;159.57;;;68.45;;
82760;SDS011;72498;42.022;21.444;2023-12-20T01:58:18;191.82;;;75.47;;
82760;SDS011;72498;42.022;21.444;2023-12-20T02:00:44;170.30;;;66.47;;
82760;SDS011;72498;42.022;21.444;2023-12-20T02:03:11;194.52;;;73.28;;
82760;SDS011;72498;42.022;21.444;2023-12-20T02:05:37;244.55;;;79.35;;
82760;SDS011;72498;42.022;21.444;2023-12-20T02:08:04;256.63;;;75.82;;
82760;SDS011;72498;42.022;21.444;2023-12-20T02:10:31;191.15;;;71.85;;
82760;SDS011;72498;42.022;21.444;2023-12-20T02:12:57;185.32;;;70.28;;
82760;SDS011;72498;42.022;21.444;2023-12-20T02:15:23;385.48;;;86.95;;
82760;SDS011;72498;42.022;21.444;2023-12-20T02:17:50;266.38;;;75.07;;
82760;SDS011;72498;42.022;21.444;2023-12-20T02:20:16;167.65;;;65.47;;
82760;SDS011;72498;42.022;21.444;2023-12-20T02:22:42;191.43;;;65.60;;
82760;SDS011;72498;42.022;21.444;2023-12-20T02:25:08;175.93;;;67.20;;
82760;SDS011;72498;42.022;21.444;2023-12-20T02:27:34;164.73;;;64.75;;
82760;SDS011;72498;42.022;21.444;2023-12-20T02:30:01;166.10;;;67.75;;
82760;SDS011;72498;42.022;21.444;2023-12-20T02:32:28;149.35;;;62.38;;
82760;SDS011;72498;42.022;21.444;2023-12-20T02:34:55;141.48;;;62.95;;
82760;SDS011;72498;42.022;21.444;2023-12-20T02:37:21;155.15;;;65.53;;
82760;SDS011;72498;42.022;21.444;2023-12-20T02:39:47;141.00;;;59.38;;
82760;SDS011;72498;42.022;21.444;2023-12-20T02:42:14;131.82;;;59.92;;
82760;SDS011;72498;42.022;21.444;2023-12-20T02:44:40;138.27;;;60.33;;
82760;SDS011;72498;42.022;21.444;2023-12-20T02:47:07;126.53;;;58.58;;
82760;SDS011;72498;42.022;21.444;2023-12-20T02:49:33;127.88;;;55.00;;
82760;SDS011;72498;42.022;21.444;2023-12-20T02:51:59;123.82;;;52.83;;
82760;SDS011;72498;42.022;21.444;2023-12-20T02:54:25;123.20;;;56.35;;
82760;SDS011;72498;42.022;21.444;2023-12-20T02:56:51;127.35;;;54.78;;
82760;SDS011;72498;42.022;21.444;2023-12-20T02:59:17;125.53;;;55.97;;
82760;SDS011;72498;42.022;21.444;2023-12-20T03:01:45;116.45;;;53.30;;
82760;SDS011;72498;42.022;21.444;2023-12-20T03:04:11;133.48;;;57.20;;
82760;SDS011;72498;42.022;21.444;2023-12-20T03:06:37;284.63;;;73.90;;
82760;SDS011;72498;42.022;21.444;2023-12-20T03:09:06;333.50;;;78.32;;
82760;SDS011;72498;42.022;21.444;2023-12-20T03:11:33;116.90;;;49.92;;
82760;SDS011;72498;42.022;21.444;2023-12-20T03:13:59;127.22;;;57.83;;
82760;SDS011;72498;42.022;21.444;2023-12-20T03:16:25;127.60;;;55.72;;
82760;SDS011;72498;42.022;21.444;2023-12-20T03:18:51;133.05;;;57.72;;
82760;SDS011;72498;42.022;21.444;2023-12-20T03:21:17;157.07;;;67.47;;
82760;SDS011;72498;42.022;21.444;2023-12-20T03:23:43;131.82;;;60.63;;
82760;SDS011;72498;42.022;21.444;2023-12-20T03:26:09;134.30;;;58.17;;
82760;SDS011;72498;42.022;21.444;2023-12-20T03:28:36;149.90;;;62.97;;
82760;SDS011;72498;42.022;21.444;2023-12-20T03:31:02;180.15;;;69.97;;
82760;SDS011;72498;42.022;21.444;2023-12-20T03:33:29;163.00;;;68.40;;
82760;SDS011;72498;42.022;21.444;2023-12-20T03:35:55;184.80;;;71.95;;
82760;SDS011;72498;42.022;21.444;2023-12-20T03:38:21;176.43;;;68.10;;
82760;SDS011;72498;42.022;21.444;2023-12-20T03:40:49;164.20;;;64.95;;
82760;SDS011;72498;42.022;21.444;2023-12-20T03:43:15;173.82;;;67.25;;
82760;SDS011;72498;42.022;21.444;2023-12-20T03:45:41;182.93;;;68.82;;
82760;SDS011;72498;42.022;21.444;2023-12-20T03:48:08;163.07;;;67.38;;
82760;SDS011;72498;42.022;21.444;2023-12-20T03:50:34;182.27;;;71.18;;
82760;SDS011;72498;42.022;21.444;2023-12-20T03:53:01;166.88;;;69.00;;
82760;SDS011;72498;42.022;21.444;2023-12-20T03:55:29;161.55;;;68.13;;
82760;SDS011;72498;42.022;21.444;2023-12-20T03:57:55;172.70;;;68.25;;
82760;SDS011;72498;42.022;21.444;2023-12-20T04:00:21;168.32;;;69.10;;
82760;SDS011;72498;42.022;21.444;2023-12-20T04:02:47;167.57;;;69.55;;
82760;SDS011;72498;42.022;21.444;2023-12-20T04:05:13;184.45;;;75.13;;
82760;SDS011;72498;42.022;21.444;2023-12-20T04:07:39;163.55;;;70.80;;
82760;SDS011;72498;42.022;21.444;2023-12-20T04:10:05;151.10;;;63.80;;
82760;SDS011;72498;42.022;21.444;2023-12-20T04:12:32;168.52;;;69.40;;
82760;SDS011;72498;42.022;21.444;2023-12-20T04:14:58;157.05;;;65.40;;
82760;SDS011;72498;42.022;21.444;2023-12-20T04:17:24;160.30;;;68.35;;
82760;SDS011;72498;42.022;21.444;2023-12-20T04:19:51;144.43;;;68.25;;
82760;SDS011;72498;42.022;21.444;2023-12-20T04:22:18;165.50;;;69.35;;
82760;SDS011;72498;42.022;21.444;2023-12-20T04:24:44;140.95;;;62.70;;
82760;SDS011;72498;42.022;21.444;2023-12-20T04:27:11;132.90;;;61.03;;
82760;SDS011;72498;42.022;21.444;2023-12-20T04:29:37;151.88;;;66.10;;
82760;SDS011;72498;42.022;21.444;2023-12-20T04:32:03;140.50;;;63.55;;
82760;SDS011;72498;42.022;21.444;2023-12-20T04:34:30;128.55;;;58.47;;
82760;SDS011;72498;42.022;21.444;2023-12-20T04:36:56;129.70;;;58.90;;
82760;SDS011;72498;42.022;21.444;2023-12-20T04:39:22;123.82;;;58.50;;
82760;SDS011;72498;42.022;21.444;2023-12-20T04:41:48;113.50;;;51.53;;
82760;SDS011;72498;42.022;21.444;2023-12-20T04:44:15;174.13;;;56.45;;
82760;SDS011;72498;42.022;21.444;2023-12-20T04:46:41;265.88;;;69.55;;
82760;SDS011;72498;42.022;21.444;2023-12-20T04:49:07;346.38;;;82.57;;
82760;SDS011;72498;42.022;21.444;2023-12-20T04:51:34;396.95;;;91.57;;
82760;SDS011;72498;42.022;21.444;2023-12-20T04:54:00;460.65;;;99.00;;
82760;SDS011;72498;42.022;21.444;2023-12-20T04:56:26;440.45;;;86.18;;
82760;SDS011;72498;42.022;21.444;2023-12-20T04:58:53;568.53;;;115.97;;
82760;SDS011;72498;42.022;21.444;2023-12-20T05:01:19;592.92;;;114.95;;
82760;SDS011;72498;42.022;21.444;2023-12-20T05:03:47;557.88;;;111.05;;
82760;SDS011;72498;42.022;21.444;2023-12-20T05:06:13;683.80;;;123.43;;
82760;SDS011;72498;42.022;21.444;2023-12-20T05:08:40;600.13;;;121.05;;
82760;SDS011;72498;42.022;21.444;2023-12-20T05:11:06;499.85;;;106.15;;
82760;SDS011;72498;42.022;21.444;2023-12-20T05:13:32;614.65;;;126.20;;
82760;SDS011;72498;42.022;21.444;2023-12-20T05:15:58;518.35;;;112.05;;
82760;SDS011;72498;42.022;21.444;2023-12-20T05:18:24;505.70;;;99.50;;
82760;SDS011;72498;42.022;21.444;2023-12-20T05:20:50;385.88;;;84.55;;
82760;SDS011;72498;42.022;21.444;2023-12-20T05:23:17;552.40;;;107.85;;
82760;SDS011;72498;42.022;21.444;2023-12-20T05:25:43;517.47;;;109.40;;
82760;SDS011;72498;42.022;21.444;2023-12-20T05:28:09;530.50;;;111.15;;
82760;SDS011;72498;42.022;21.444;2023-12-20T05:30:36;449.75;;;98.13;;
82760;SDS011;72498;42.022;21.444;2023-12-20T05:33:02;319.08;;;76.65;;
82760;SDS011;72498;42.022;21.444;2023-12-20T05:35:28;457.75;;;91.72;;
82760;SDS011;72498;42.022;21.444;2023-12-20T05:37:54;64.93;;;31.38;;
82760;SDS011;72498;42.022;21.444;2023-12-20T05:40:20;108.00;;;40.00;;
82760;SDS011;72498;42.022;21.444;2023-12-20T05:42:46;62.60;;;28.95;;
82760;SDS011;72498;42.022;21.444;2023-12-20T05:45:14;76.72;;;32.88;;
82760;SDS011;72498;42.022;21.444;2023-12-20T05:47:41;823.38;;;241.77;;
82760;SDS011;72498;42.022;21.444;2023-12-20T05:50:07;600.40;;;170.68;;
82760;SDS011;72498;42.022;21.444;2023-12-20T05:52:34;556.40;;;148.65;;
82760;SDS011;72498;42.022;21.444;2023-12-20T05:55:00;434.98;;;96.55;;
82760;SDS011;72498;42.022;21.444;2023-12-20T05:57:26;388.70;;;77.50;;
82760;SDS011;72498;42.022;21.444;2023-12-20T05:59:52;656.42;;;173.05;;
82760;SDS011;72498;42.022;21.444;2023-12-20T06:02:19;682.33;;;170.55;;
82760;SDS011;72498;42.022;21.444;2023-12-20T06:04:45;811.03;;;194.30;;
82760;SDS011;72498;42.022;21.444;2023-12-20T06:07:11;649.85;;;177.85;;
82760;SDS011;72498;42.022;21.444;2023-12-20T06:09:41;580.20;;;155.23;;
82760;SDS011;72498;42.022;21.444;2023-12-20T06:12:11;524.83;;;138.48;;
82760;SDS011;72498;42.022;21.444;2023-12-20T06:14:38;434.08;;;135.75;;
82760;SDS011;72498;42.022;21.444;2023-12-20T06:17:04;490.15;;;137.63;;
82760;SDS011;72498;42.022;21.444;2023-12-20T06:19:30;357.80;;;111.10;;
82760;SDS011;72498;42.022;21.444;2023-12-20T06:22:01;405.95;;;108.93;;
82760;SDS011;72498;42.022;21.444;2023-12-20T06:24:27;270.42;;;91.70;;
82760;SDS011;72498;42.022;21.444;2023-12-20T06:26:56;523.97;;;136.07;;
82760;SDS011;72498;42.022;21.444;2023-12-20T06:29:22;355.73;;;110.22;;
82760;SDS011;72498;42.022;21.444;2023-12-20T06:31:49;631.28;;;148.05;;
82760;SDS011;72498;42.022;21.444;2023-12-20T06:34:16;317.95;;;98.15;;
82760;SDS011;72498;42.022;21.444;2023-12-20T06:36:42;595.97;;;161.90;;
82760;SDS011;72498;42.022;21.444;2023-12-20T06:39:10;627.85;;;148.88;;
82760;SDS011;72498;42.022;21.444;2023-12-20T06:41:38;513.75;;;116.07;;
82760;SDS011;72498;42.022;21.444;2023-12-20T06:44:08;496.92;;;118.13;;
82760;SDS011;72498;42.022;21.444;2023-12-20T06:46:37;999.72;;;196.48;;
82760;SDS011;72498;42.022;21.444;2023-12-20T06:49:03;89.18;;;40.88;;
82760;SDS011;72498;42.022;21.444;2023-12-20T06:51:35;223.95;;;68.18;;
82760;SDS011;72498;42.022;21.444;2023-12-20T06:54:02;769.13;;;241.70;;
82760;SDS011;72498;42.022;21.444;2023-12-20T06:56:38;742.15;;;224.05;;
82760;SDS011;72498;42.022;21.444;2023-12-20T08:03:09;535.85;;;139.48;;
82760;SDS011;72498;42.022;21.444;2023-12-20T08:05:42;1011.10;;;253.30;;
82760;SDS011;72498;42.022;21.444;2023-12-20T08:08:09;227.40;;;88.88;;
82760;SDS011;72498;42.022;21.444;2023-12-20T09:32:05;353.92;;;128.45;;
82760;SDS011;72498;42.022;21.444;2023-12-20T09:34:40;130.02;;;48.40;;
82760;SDS011;72498;42.022;21.444;2023-12-20T10:11:04;209.73;;;84.65;;
82760;SDS011;72498;42.022;21.444;2023-12-20T10:13:42;203.73;;;82.47;;
82760;SDS011;72498;42.022;21.444;2023-12-20T10:16:41;154.65;;;67.05;;
82760;SDS011;72498;42.022;21.444;2023-12-20T10:19:48;225.95;;;107.40;;
82760;SDS011;72498;42.022;21.444;2023-12-20T11:09:22;152.38;;;85.72;;
82760;SDS011;72498;42.022;21.444;2023-12-20T11:14:50;170.60;;;89.55;;
82760;SDS011;72498;42.022;21.444;2023-12-20T11:17:17;161.85;;;83.72;;
82760;SDS011;72498;42.022;21.444;2023-12-20T11:20:04;160.45;;;87.78;;
82760;SDS011;72498;42.022;21.444;2023-12-20T11:22:31;163.70;;;96.90;;
82760;SDS011;72498;42.022;21.444;2023-12-20T11:25:09;145.10;;;66.85;;
82760;SDS011;72498;42.022;21.444;2023-12-20T11:27:35;148.68;;;66.75;;
82760;SDS011;72498;42.022;21.444;2023-12-20T11:30:03;166.13;;;91.55;;
82760;SDS011;72498;42.022;21.444;2023-12-20T11:32:36;164.82;;;85.63;;
82760;SDS011;72498;42.022;21.444;2023-12-20T11:37:35;150.07;;;76.53;;
82760;SDS011;72498;42.022;21.444;2023-12-20T11:40:04;142.15;;;72.82;;
82760;SDS011;72498;42.022;21.444;2023-12-20T11:42:41;142.70;;;74.57;;
82760;SDS011;72498;42.022;21.444;2023-12-20T11:45:10;134.68;;;68.43;;
82760;SDS011;72498;42.022;21.444;2023-12-20T11:47:48;137.73;;;77.85;;
82760;SDS011;72498;42.022;21.444;2023-12-20T11:50:20;155.18;;;87.10;;
82760;SDS011;72498;42.022;21.444;2023-12-20T11:52:56;157.73;;;87.32;;
82760;SDS011;72498;42.022;21.444;2023-12-20T11:55:22;151.27;;;82.47;;
82760;SDS011;72498;42.022;21.444;2023-12-20T11:57:55;158.05;;;84.47;;
82760;SDS011;72498;42.022;21.444;2023-12-20T12:00:23;156.25;;;83.22;;
82760;SDS011;72498;42.022;21.444;2023-12-20T12:02:58;153.50;;;82.50;;
82760;SDS011;72498;42.022;21.444;2023-12-20T12:05:48;152.55;;;83.68;;
82760;SDS011;72498;42.022;21.444;2023-12-20T12:10:43;141.40;;;75.20;;
82760;SDS011;72498;42.022;21.444;2023-12-20T12:13:10;147.45;;;82.20;;
82760;SDS011;72498;42.022;21.444;2023-12-20T12:15:42;142.45;;;79.38;;
82760;SDS011;72498;42.022;21.444;2023-12-20T12:18:15;150.73;;;85.80;;
82760;SDS011;72498;42.022;21.444;2023-12-20T12:20:44;162.25;;;99.53;;
82760;SDS011;72498;42.022;21.444;2023-12-20T12:23:33;161.13;;;78.32;;
82760;SDS011;72498;42.022;21.444;2023-12-20T12:25:59;143.80;;;73.93;;
82760;SDS011;72498;42.022;21.444;2023-12-20T12:28:37;147.80;;;72.07;;
82760;SDS011;72498;42.022;21.444;2023-12-20T12:34:07;141.63;;;74.80;;
82760;SDS011;72498;42.022;21.444;2023-12-20T12:54:45;145.02;;;74.30;;
82760;SDS011;72498;42.022;21.444;2023-12-20T13:02:28;135.55;;;67.25;;
82760;SDS011;72498;42.022;21.444;2023-12-20T13:11:55;152.60;;;74.55;;
82760;SDS011;72498;42.022;21.444;2023-12-20T13:14:23;159.35;;;84.40;;
82760;SDS011;72498;42.022;21.444;2023-12-20T13:16:50;203.55;;;122.82;;
82760;SDS011;72498;42.022;21.444;2023-12-20T13:27:19;199.95;;;110.63;;
82760;SDS011;72498;42.022;21.444;2023-12-20T13:29:48;164.32;;;85.93;;
82760;SDS011;72498;42.022;21.444;2023-12-20T13:32:39;159.10;;;73.57;;
82760;SDS011;72498;42.022;21.444;2023-12-20T13:35:24;178.68;;;86.07;;
82760;SDS011;72498;42.022;21.444;2023-12-20T13:37:51;145.50;;;78.03;;
82760;SDS011;72498;42.022;21.444;2023-12-20T13:40:17;149.18;;;73.97;;
82760;SDS011;72498;42.022;21.444;2023-12-20T13:42:44;150.23;;;71.22;;
82760;SDS011;72498;42.022;21.444;2023-12-20T13:45:12;144.10;;;72.30;;
82760;SDS011;72498;42.022;21.444;2023-12-20T14:00:27;138.15;;;66.43;;
82760;SDS011;72498;42.022;21.444;2023-12-20T14:02:54;205.45;;;112.43;;
82760;SDS011;72498;42.022;21.444;2023-12-20T14:05:20;159.93;;;77.30;;
82760;SDS011;72498;42.022;21.444;2023-12-20T14:23:23;158.77;;;80.53;;
82760;SDS011;72498;42.022;21.444;2023-12-20T14:28:52;182.68;;;102.40;;
82760;SDS011;72498;42.022;21.444;2023-12-20T14:31:21;192.60;;;96.88;;
82760;SDS011;72498;42.022;21.444;2023-12-20T17:12:31;202.80;;;90.13;;
82760;SDS011;72498;42.022;21.444;2023-12-20T17:15:03;190.07;;;86.70;;
82760;SDS011;72498;42.022;21.444;2023-12-20T17:17:45;186.68;;;85.65;;
82760;SDS011;72498;42.022;21.444;2023-12-20T17:28:01;173.80;;;81.00;;
82760;SDS011;72498;42.022;21.444;2023-12-20T17:30:30;200.27;;;89.60;;
82760;SDS011;72498;42.022;21.444;2023-12-20T17:59:00;254.00;;;116.75;;
82760;SDS011;72498;42.022;21.444;2023-12-20T18:01:46;244.93;;;113.05;;
82760;SDS011;72498;42.022;21.444;2023-12-20T18:04:15;230.57;;;107.22;;
82760;SDS011;72498;42.022;21.444;2023-12-20T18:06:45;247.70;;;119.97;;
82760;SDS011;72498;42.022;21.444;2023-12-20T18:09:15;272.00;;;127.47;;
82760;SDS011;72498;42.022;21.444;2023-12-20T18:11:46;306.40;;;138.13;;
82760;SDS011;72498;42.022;21.444;2023-12-20T18:14:39;313.73;;;144.13;;
82760;SDS011;72498;42.022;21.444;2023-12-20T18:17:06;301.30;;;144.05;;
82760;SDS011;72498;42.022;21.444;2023-12-20T18:19:32;305.13;;;149.05;;
82760;SDS011;72498;42.022;21.444;2023-12-20T18:21:58;290.00;;;138.70;;
82760;SDS011;72498;42.022;21.444;2023-12-20T18:24:24;309.13;;;145.35;;
82760;SDS011;72498;42.022;21.444;2023-12-20T18:29:42;311.63;;;151.10;;
82760;SDS011;72498;42.022;21.444;2023-12-20T18:32:11;329.92;;;149.48;;
82760;SDS011;72498;42.022;21.444;2023-12-20T18:40:33;316.95;;;147.48;;
82760;SDS011;72498;42.022;21.444;2023-12-20T18:46:09;306.45;;;142.77;;
82760;SDS011;72498;42.022;21.444;2023-12-20T18:48:37;313.73;;;147.30;;
82760;SDS011;72498;42.022;21.444;2023-12-20T18:51:05;317.20;;;147.38;;
82760;SDS011;72498;42.022;21.444;2023-12-20T18:53:37;307.08;;;141.65;;
82760;SDS011;72498;42.022;21.444;2023-12-20T18:56:03;294.40;;;142.27;;
82760;SDS011;72498;42.022;21.444;2023-12-20T18:58:32;304.05;;;144.25;;
82760;SDS011;72498;42.022;21.444;2023-12-20T19:03:44;303.80;;;137.40;;
82760;SDS011;72498;42.022;21.444;2023-12-20T19:06:14;304.50;;;139.48;;
82760;SDS011;72498;42.022;21.444;2023-12-20T19:08:49;305.13;;;142.07;;
82760;SDS011;72498;42.022;21.444;2023-12-20T19:11:19;297.85;;;143.23;;
82760;SDS011;72498;42.022;21.444;2023-12-20T19:13:50;311.42;;;145.73;;
82760;SDS011;72498;42.022;21.444;2023-12-20T19:16:17;286.48;;;139.60;;
82760;SDS011;72498;42.022;21.444;2023-12-20T19:18:43;309.98;;;146.80;;
82760;SDS011;72498;42.022;21.444;2023-12-20T19:21:11;299.70;;;140.48;;
82760;SDS011;72498;42.022;21.444;2023-12-20T19:23:41;286.50;;;137.38;;
82760;SDS011;72498;42.022;21.444;2023-12-20T19:26:10;288.35;;;134.90;;
82760;SDS011;72498;42.022;21.444;2023-12-20T19:28:37;332.77;;;160.68;;
82760;SDS011;72498;42.022;21.444;2023-12-20T19:31:11;337.50;;;162.80;;
82760;SDS011;72498;42.022;21.444;2023-12-20T19:33:39;377.27;;;183.40;;
82760;SDS011;72498;42.022;21.444;2023-12-20T19:36:11;362.85;;;176.25;;
82760;SDS011;72498;42.022;21.444;2023-12-20T19:38:39;366.67;;;171.88;;
82760;SDS011;72498;42.022;21.444;2023-12-20T19:43:32;354.75;;;166.43;;
82760;SDS011;72498;42.022;21.444;2023-12-20T19:45:59;368.23;;;178.63;;
82760;SDS011;72498;42.022;21.444;2023-12-20T19:48:28;350.75;;;168.73;;
82760;SDS011;72498;42.022;21.444;2023-12-20T19:50:56;323.67;;;155.90;;
82760;SDS011;72498;42.022;21.444;2023-12-20T19:55:58;332.75;;;159.57;;
82760;SDS011;72498;42.022;21.444;2023-12-20T20:00:53;296.13;;;138.52;;
82760;SDS011;72498;42.022;21.444;2023-12-20T20:03:19;297.33;;;145.70;;
82760;SDS011;72498;42.022;21.444;2023-12-20T20:05:48;316.63;;;147.80;;
82760;SDS011;72498;42.022;21.444;2023-12-20T20:08:23;321.10;;;153.27;;
82760;SDS011;72498;42.022;21.444;2023-12-20T20:11:01;327.45;;;158.55;;
82760;SDS011;72498;42.022;21.444;2023-12-20T20:13:28;355.80;;;163.82;;
82760;SDS011;72498;42.022;21.444;2023-12-20T20:15:54;392.88;;;177.10;;
82760;SDS011;72498;42.022;21.444;2023-12-20T20:18:21;362.13;;;175.63;;
82760;SDS011;72498;42.022;21.444;2023-12-20T20:20:52;359.70;;;167.55;;
82760;SDS011;72498;42.022;21.444;2023-12-20T20:23:18;350.65;;;172.05;;
82760;SDS011;72498;42.022;21.444;2023-12-20T20:25:48;343.40;;;161.07;;
82760;SDS011;72498;42.022;21.444;2023-12-20T20:28:15;325.98;;;155.20;;
82760;SDS011;72498;42.022;21.444;2023-12-20T20:30:42;336.75;;;156.70;;
82760;SDS011;72498;42.022;21.444;2023-12-20T20:33:08;350.10;;;161.48;;
82760;SDS011;72498;42.022;21.444;2023-12-20T20:35:35;340.65;;;160.00;;
82760;SDS011;72498;42.022;21.444;2023-12-20T20:38:01;320.13;;;153.15;;
82760;SDS011;72498;42.022;21.444;2023-12-20T20:40:32;338.25;;;162.30;;
82760;SDS011;72498;42.022;21.444;2023-12-20T20:43:04;344.27;;;165.15;;
82760;SDS011;72498;42.022;21.444;2023-12-20T20:45:35;310.00;;;146.68;;
82760;SDS011;72498;42.022;21.444;2023-12-20T20:48:07;333.52;;;161.85;;
82760;SDS011;72498;42.022;21.444;2023-12-20T20:50:37;318.55;;;149.85;;
82760;SDS011;72498;42.022;21.444;2023-12-20T20:58:37;331.63;;;162.32;;
82760;SDS011;72498;42.022;21.444;2023-12-20T21:45:11;373.70;;;186.77;;
82760;SDS011;72498;42.022;21.444;2023-12-20T21:47:42;370.52;;;183.15;;
82760;SDS011;72498;42.022;21.444;2023-12-20T21:50:11;354.10;;;177.23;;
82760;SDS011;72498;42.022;21.444;2023-12-20T21:52:42;352.40;;;177.43;;
82760;SDS011;72498;42.022;21.444;2023-12-20T22:30:40;209.43;;;100.85;;
82760;SDS011;72498;42.022;21.444;2023-12-20T22:33:14;195.40;;;95.45;;
82760;SDS011;72498;42.022;21.444;2023-12-20T22:35:51;178.15;;;88.45;;
82760;SDS011;72498;42.022;21.444;2023-12-20T22:38:53;193.85;;;91.55;;
82760;SDS011;72498;42.022;21.444;2023-12-20T22:41:24;184.95;;;86.00;;
82760;SDS011;72498;42.022;21.444;2023-12-20T22:44:10;193.40;;;89.10;;
82760;SDS011;72498;42.022;21.444;2023-12-20T22:46:39;187.20;;;94.70;;
82760;SDS011;72498;42.022;21.444;2023-12-20T22:49:10;201.25;;;95.90;;
82760;SDS011;72498;42.022;21.444;2023-12-20T22:51:56;212.32;;;92.80;;
82760;SDS011;72498;42.022;21.444;2023-12-20T22:54:24;185.27;;;89.82;;
82760;SDS011;72498;42.022;21.444;2023-12-20T22:56:53;201.60;;;91.18;;
82760;SDS011;72498;42.022;21.444;2023-12-20T22:59:23;190.38;;;92.57;;
82760;SDS011;72498;42.022;21.444;2023-12-20T23:01:54;201.30;;;92.28;;
82760;SDS011;72498;42.022;21.444;2023-12-20T23:04:22;208.68;;;94.38;;
82760;SDS011;72498;42.022;21.444;2023-12-20T23:06:48;202.95;;;87.03;;
82760;SDS011;72498;42.022;21.444;2023-12-20T23:09:17;230.50;;;95.25;;
82760;SDS011;72498;42.022;21.444;2023-12-20T23:12:13;193.30;;;87.93;;
82760;SDS011;72498;42.022;21.444;2023-12-20T23:14:41;210.52;;;92.63;;
82760;SDS011;72498;42.022;21.444;2023-12-20T23:17:15;230.75;;;96.63;;
82760;SDS011;72498;42.022;21.444;2023-12-20T23:20:02;252.27;;;101.07;;
82760;SDS011;72498;42.022;21.444;2023-12-20T23:27:47;250.25;;;102.13;;
82760;SDS011;72498;42.022;21.444;2023-12-20T23:30:17;222.70;;;97.70;;
82760;SDS011;72498;42.022;21.444;2023-12-20T23:33:06;262.77;;;112.05;;
82760;SDS011;72498;42.022;21.444;2023-12-20T23:35:39;251.48;;;107.80;;
82760;SDS011;72498;42.022;21.444;2023-12-20T23:38:07;260.10;;;109.28;;
82760;SDS011;72498;42.022;21.444;2023-12-20T23:40:35;258.48;;;112.47;;
82760;SDS011;72498;42.022;21.444;2023-12-20T23:43:03;262.65;;;112.78;;
82760;SDS011;72498;42.022;21.444;2023-12-20T23:45:29;255.52;;;113.80;;
82760;SDS011;72498;42.022;21.444;2023-12-20T23:47:57;269.77;;;114.97;;
82760;SDS011;72498;42.022;21.444;2023-12-20T23:50:26;280.65;;;119.35;;
82760;SDS011;72498;42.022;21.444;2023-12-20T23:53:03;282.50;;;116.22;;
82760;SDS011;72498;42.022;21.444;2023-12-20T23:55:34;261.70;;;112.07;;
82760;SDS011;72498;42.022;21.444;2023-12-20T23:58:02;298.27;;;120.40;;
